»·PEaware :: AFL1200 KOLM-KPSC

AFL1200 :: KOLM-KPSC

FLIGHT INFORMATION

Flight Status: Arrived
Operator:
Aeroflot
More flights by this operator :: More flights under this callsign
Pilot: Alan J. (5709)
Aircraft: YAKOVLEV YAK-40
(YK40)
More flights by this aircraft type
Origin: KOLM Olympia
United States
Destination: KPSC Tri-Cities
United States
More flights between these airports :: More routes between these airports
Route: +YELM5 OLM V204 PSC
File this flight plan on PilotEdge
Remarks:
Altitude:
(Current/Filed)
23,000ft
Speed:
(Current/Filed)
300kts
Departed: 03-Feb-19 02:10 PM
Arrived: 03-Feb-19 03:03 PM
Distance/Time
Traveled:
162nm/0:52
Distance/Time
To Go:
Arrived

Flight Plot

Page will automatically refresh every two minutes.


Map Options




Map Legend


Flown Route
Filed Route
Departure Airport
Arrival Airport
Navaid (VOR, NDB)
Fix

Horizontal Profiles

Position Reports

Time Latitude Longitude Heading Altitude Ground
Speed
03-Feb-19 13:57 46.975731 -122.898772 281 216ft 0kts
03-Feb-19 13:58 46.975731 -122.898772 281 216ft 0kts
03-Feb-19 13:59 46.975731 -122.898772 281 216ft 0kts
03-Feb-19 14:00 46.975731 -122.898772 281 216ft 0kts
03-Feb-19 14:02 46.975731 -122.898772 281 216ft 0kts
03-Feb-19 14:03 46.975731 -122.898772 281 216ft 0kts
03-Feb-19 14:04 46.975731 -122.898772 281 216ft 0kts
03-Feb-19 14:05 46.975749 -122.898913 277 216ft 2kts
03-Feb-19 14:06 46.976107 -122.900897 281 216ft 8kts
03-Feb-19 14:07 46.976142 -122.901148 281 216ft 0kts
03-Feb-19 14:08 46.976142 -122.901148 281 216ft 0kts
03-Feb-19 14:09 46.976145 -122.901165 282 216ft 1kts
03-Feb-19 14:10 46.971915 -122.903639 192 216ft 80kts
03-Feb-19 14:11 46.943921 -122.885344 71 2464ft 173kts
03-Feb-19 14:12 46.972547 -122.831724 47 2364ft 162kts
03-Feb-19 14:13 47.009578 -122.780311 44 3451ft 225kts
03-Feb-19 14:14 47.056130 -122.712783 46 5902ft 243kts
03-Feb-19 14:15 47.102924 -122.639420 49 8228ft 284kts
03-Feb-19 14:16 47.153107 -122.558926 47 10710ft 296kts
03-Feb-19 14:16 47.188254 -122.483002 83 12560ft 291kts
03-Feb-19 14:18 47.131803 -122.407838 171 15674ft 255kts
03-Feb-19 14:19 47.062270 -122.384555 172 17870ft 258kts
03-Feb-19 14:20 46.991983 -122.353563 166 19725ft 273kts
03-Feb-19 14:20 46.931365 -122.322686 166 21197ft 284kts
03-Feb-19 14:21 46.856079 -122.282574 165 22937ft 294kts
03-Feb-19 14:23 46.793265 -122.177097 112 23338ft 342kts
03-Feb-19 14:24 46.736894 -122.072415 139 22904ft 330kts
03-Feb-19 14:24 46.688171 -121.988772 125 22817ft 330kts
03-Feb-19 14:25 46.643881 -121.871796 122 22472ft 332kts
03-Feb-19 14:26 46.602083 -121.755104 122 22523ft 321kts
03-Feb-19 14:27 46.562472 -121.640062 112 22556ft 318kts
03-Feb-19 14:28 46.551989 -121.511971 86 22512ft 323kts
03-Feb-19 14:29 46.564556 -121.382445 82 22459ft 322kts
03-Feb-19 14:30 46.578889 -121.254212 84 22465ft 320kts
03-Feb-19 14:31 46.584413 -121.127235 89 22286ft 306kts
03-Feb-19 14:32 46.586306 -121.005802 96 21203ft 299kts
03-Feb-19 14:33 46.578476 -120.884819 100 19823ft 301kts
03-Feb-19 14:34 46.569741 -120.763539 92 18380ft 304kts
03-Feb-19 14:35 46.574700 -120.640883 88 16964ft 304kts
03-Feb-19 14:36 46.570299 -120.519720 100 15522ft 301kts
03-Feb-19 14:37 46.559826 -120.399037 101 13970ft 302kts
03-Feb-19 14:38 46.535183 -120.285041 114 12563ft 293kts
03-Feb-19 14:39 46.508565 -120.173917 108 11151ft 291kts
03-Feb-19 14:40 46.487682 -120.065914 108 10932ft 264kts
03-Feb-19 14:41 46.468140 -119.964360 108 10967ft 257kts
03-Feb-19 14:42 46.448857 -119.865473 109 10985ft 253kts
03-Feb-19 14:43 46.429235 -119.767805 114 10754ft 261kts
03-Feb-19 14:44 46.382559 -119.679300 134 9014ft 280kts
03-Feb-19 14:45 46.348780 -119.585677 97 7222ft 254kts
03-Feb-19 14:46 46.345819 -119.487369 77 5378ft 236kts
03-Feb-19 14:47 46.386608 -119.425160 31 3625ft 217kts
03-Feb-19 14:48 46.431156 -119.378773 47 3162ft 183kts
03-Feb-19 14:49 46.458232 -119.316865 57 3195ft 181kts
03-Feb-19 14:50 46.483879 -119.253886 58 3195ft 181kts
03-Feb-19 14:51 46.499853 -119.185674 83 3190ft 183kts
03-Feb-19 14:52 46.504288 -119.112137 85 3194ft 182kts
03-Feb-19 14:53 46.497179 -119.040136 100 3196ft 181kts
03-Feb-19 14:54 46.475851 -118.975601 127 3191ft 181kts
03-Feb-19 14:55 46.443697 -118.919597 128 3195ft 180kts
03-Feb-19 14:56 46.403412 -118.892977 210 2997ft 195kts
03-Feb-19 14:57 46.366965 -118.950548 229 1903ft 193kts
03-Feb-19 14:58 46.334555 -118.993707 213 2031ft 131kts
03-Feb-19 14:59 46.314128 -119.029758 241 1384ft 112kts
03-Feb-19 15:00 46.299323 -119.068613 228 1254ft 112kts
03-Feb-19 15:01 46.277136 -119.101953 225 760ft 119kts
03-Feb-19 15:02 46.260095 -119.127421 225 418ft 22kts
03-Feb-19 15:03 46.258445 -119.126396 134 418ft 0kts
03-Feb-19 15:04 46.258445 -119.126396 134 418ft 0kts
03-Feb-19 15:05 46.259974 -119.119875 65 418ft 36kts
03-Feb-19 15:06 46.261066 -119.113995 135 418ft 5kts
03-Feb-19 15:07 46.259523 -119.113068 274 418ft 5kts
03-Feb-19 15:08 46.259517 -119.114005 268 418ft 0kts
03-Feb-19 15:09 46.259517 -119.114005 268 418ft 0kts
03-Feb-19 15:10 46.259517 -119.114005 268 418ft 0kts
03-Feb-19 15:11 46.259517 -119.114005 268 418ft 0kts
03-Feb-19 15:12 46.259517 -119.114005 268 418ft 0kts
03-Feb-19 15:13 46.259517 -119.114005 268 418ft 0kts
03-Feb-19 15:14 46.259517 -119.114005 268 418ft 0kts

Navigation Log

Ident Type
Flight plan parsing failed, navigation log unavailable